createdAt,value
2022-08-22T00:00:50.939Z,95.21
2022-08-22T00:01:51.063Z,95.41
2022-08-22T00:02:44.477Z,89.08
2022-08-22T00:02:54.355Z,85.52
2022-08-22T00:02:54.874Z,90.60
2022-08-22T00:02:57.281Z,81.56
2022-08-22T00:02:58.380Z,87.58
2022-08-22T00:03:09.034Z,93.40
2022-08-22T00:03:11.562Z,92.94
2022-08-22T00:03:15.001Z,95.72
2022-08-22T00:03:51.909Z,96.02
2022-08-22T00:04:50.890Z,96.02
2022-08-22T00:05:50.881Z,96.12
2022-08-22T00:06:50.860Z,96.63
2022-08-22T00:07:50.869Z,96.43
2022-08-22T00:08:50.840Z,96.73
2022-08-22T00:09:50.829Z,96.63
2022-08-22T00:10:50.810Z,96.43
2022-08-22T00:11:50.809Z,96.02
2022-08-22T00:12:50.798Z,95.51
2022-08-22T00:14:01.096Z,95.31
2022-08-22T00:14:51.757Z,95.21
2022-08-22T00:15:50.749Z,95.01
2022-08-22T00:16:50.729Z,95.21
2022-08-22T00:17:50.738Z,95.51
2022-08-22T00:18:50.718Z,97.44
2022-08-22T00:19:50.700Z,98.26
2022-08-22T00:20:50.678Z,97.75
2022-08-22T00:21:50.678Z,97.34
2022-08-22T00:22:50.666Z,97.65
2022-08-22T00:23:50.645Z,97.14
2022-08-22T00:24:50.626Z,96.94
2022-08-22T00:25:50.615Z,96.53
2022-08-22T00:26:50.599Z,96.83
2022-08-22T00:27:50.626Z,97.14
2022-08-22T00:28:50.577Z,96.94
2022-08-22T00:29:50.568Z,97.04
2022-08-22T00:30:50.537Z,97.04
2022-08-22T00:31:50.538Z,97.04
2022-08-22T00:32:50.529Z,97.04
2022-08-22T00:33:50.508Z,96.94
2022-08-22T00:34:50.490Z,96.94
2022-08-22T00:35:50.485Z,96.88
2022-08-22T00:36:50.467Z,96.78
2022-08-22T00:37:50.467Z,97.29
2022-08-22T00:38:50.437Z,97.60
2022-08-22T00:39:50.464Z,97.39
2022-08-22T00:40:50.415Z,97.19
2022-08-22T00:41:50.405Z,96.88
2022-08-22T00:42:50.398Z,96.17
2022-08-22T00:43:50.385Z,97.19
2022-08-22T00:44:50.357Z,97.69
2022-08-22T00:45:50.347Z,97.39
2022-08-22T00:46:50.358Z,97.19
2022-08-22T00:47:50.337Z,96.98
2022-08-22T00:48:50.297Z,96.88
2022-08-22T00:49:50.305Z,96.78
2022-08-22T00:50:50.276Z,96.78
2022-08-22T00:51:50.275Z,96.47
2022-08-22T00:52:50.278Z,96.42
2022-08-22T00:53:50.505Z,96.72
2022-08-22T00:54:50.234Z,96.92
2022-08-22T00:55:50.216Z,97.53
2022-08-22T00:56:50.196Z,97.23
2022-08-22T00:57:50.212Z,96.92
2022-08-22T00:58:50.175Z,96.22
2022-08-22T00:59:50.176Z,96.11
2022-08-22T01:00:50.195Z,95.81
2022-08-22T01:01:50.143Z,95.61
2022-08-22T01:02:52.558Z,95.85
2022-08-22T01:03:50.115Z,96.56
2022-08-22T01:04:50.106Z,97.17
2022-08-22T01:05:50.086Z,96.97
2022-08-22T01:06:50.065Z,97.07
2022-08-22T01:07:50.069Z,96.87
2022-08-22T01:08:50.037Z,96.67
2022-08-22T01:09:50.045Z,96.67
2022-08-22T01:10:50.014Z,96.67
2022-08-22T01:11:50.005Z,96.87
2022-08-22T01:12:50.005Z,96.56
2022-08-22T01:13:49.992Z,96.61
2022-08-22T01:14:49.966Z,96.51
2022-08-22T01:15:49.954Z,96.41
2022-08-22T01:16:49.935Z,96.51
2022-08-22T01:17:49.944Z,96.51
2022-08-22T01:18:49.918Z,96.71
2022-08-22T01:19:49.904Z,96.61
2022-08-22T01:20:49.888Z,96.61
2022-08-22T01:21:49.876Z,96.41
2022-08-22T01:22:49.865Z,96.41
2022-08-22T01:23:49.846Z,96.41
2022-08-22T01:24:49.834Z,96.81
2022-08-22T01:25:49.823Z,97.37
2022-08-22T01:26:49.803Z,97.57
2022-08-22T01:27:49.814Z,98.03
2022-08-22T01:28:49.774Z,97.78
2022-08-22T01:29:49.773Z,97.67
2022-08-22T01:30:49.744Z,97.47
2022-08-22T01:31:49.745Z,98.28
2022-08-22T01:32:49.724Z,98.79
2022-08-22T01:33:50.733Z,98.49
2022-08-22T01:34:49.702Z,98.18
2022-08-22T01:35:49.683Z,98.28
2022-08-22T01:36:49.674Z,99.00
2022-08-22T01:37:49.665Z,98.79
2022-08-22T01:38:49.659Z,98.39
2022-08-22T01:39:49.686Z,98.69
2022-08-22T01:40:53.738Z,98.69
2022-08-22T01:41:49.617Z,98.59
2022-08-22T01:42:49.592Z,98.28
2022-08-22T01:44:00.179Z,98.08
2022-08-22T01:44:50.573Z,99.10
2022-08-22T01:45:49.553Z,99.00
2022-08-22T01:46:49.544Z,98.69
2022-08-22T01:47:49.548Z,98.28
2022-08-22T01:48:49.523Z,98.28
2022-08-22T01:49:49.501Z,99.30
2022-08-22T01:50:49.492Z,99.71
2022-08-22T01:51:49.475Z,99.99
2022-08-22T01:52:49.463Z,99.99
2022-08-22T01:53:49.462Z,99.99
2022-08-22T01:54:49.442Z,99.99
2022-08-22T01:55:49.422Z,99.99
2022-08-22T01:56:49.411Z,99.99
2022-08-22T01:57:49.392Z,99.99
2022-08-22T01:58:49.402Z,99.99
2022-08-22T01:59:49.381Z,99.99
2022-08-22T02:00:49.388Z,99.99
2022-08-22T02:01:49.339Z,99.99
2022-08-22T02:02:49.331Z,99.99
2022-08-22T02:03:49.330Z,99.99
2022-08-22T02:04:49.302Z,99.99
2022-08-22T02:05:49.299Z,99.99
2022-08-22T02:06:49.285Z,99.99
2022-08-22T02:07:49.272Z,99.99
2022-08-22T02:08:49.271Z,99.99
2022-08-22T02:09:49.255Z,99.99
2022-08-22T02:10:49.233Z,99.99
2022-08-22T02:11:49.220Z,99.99
2022-08-22T02:12:49.219Z,99.99
2022-08-22T02:13:49.212Z,99.99
2022-08-22T02:14:49.172Z,99.99
2022-08-22T02:15:49.160Z,99.99
2022-08-22T02:16:49.160Z,99.99
2022-08-22T02:17:49.138Z,99.99
2022-08-22T02:18:49.140Z,99.99
2022-08-22T02:19:49.110Z,99.86
2022-08-22T02:20:49.110Z,99.86
2022-08-22T02:21:49.070Z,99.96
2022-08-22T02:22:49.069Z,99.99
2022-08-22T02:23:49.067Z,99.99
2022-08-22T02:24:49.039Z,99.91
2022-08-22T02:25:49.024Z,99.99
2022-08-22T02:26:49.019Z,99.99
2022-08-22T02:27:48.991Z,99.99
2022-08-22T02:28:56.547Z,99.99
2022-08-22T02:29:49.979Z,99.99
2022-08-22T02:30:48.959Z,99.99
2022-08-22T02:31:48.939Z,99.99
2022-08-22T02:32:48.936Z,99.99
2022-08-22T02:33:48.929Z,99.99
2022-08-22T02:34:50.211Z,99.91
2022-08-22T02:35:48.889Z,99.75
2022-08-22T02:36:48.878Z,99.75
2022-08-22T02:37:48.866Z,99.75
2022-08-22T02:38:48.867Z,99.85
2022-08-22T02:39:48.882Z,99.75
2022-08-22T02:40:48.828Z,99.65
2022-08-22T02:41:48.855Z,99.85
2022-08-22T02:42:48.813Z,99.95
2022-08-22T02:43:49.549Z,99.99
2022-08-22T02:44:48.778Z,99.99
2022-08-22T02:45:48.767Z,99.99
2022-08-22T02:46:48.768Z,99.99
2022-08-22T02:47:48.738Z,99.99
2022-08-22T02:48:48.748Z,99.95
2022-08-22T02:49:48.734Z,99.99
2022-08-22T02:50:48.697Z,99.99
2022-08-22T02:51:48.678Z,99.99
2022-08-22T02:52:48.677Z,99.99
2022-08-22T02:53:48.668Z,99.99
2022-08-22T02:54:48.648Z,99.99
2022-08-22T02:55:48.637Z,99.99
2022-08-22T02:56:48.617Z,99.99
2022-08-22T02:57:48.627Z,99.99
2022-08-22T02:58:48.602Z,99.99
2022-08-22T02:59:48.569Z,99.99
2022-08-22T03:00:48.625Z,99.99
2022-08-22T03:01:48.572Z,99.99
2022-08-22T03:02:48.547Z,99.99
2022-08-22T03:03:48.538Z,99.99
2022-08-22T03:04:48.518Z,99.99
2022-08-22T03:05:48.506Z,99.99
2022-08-22T03:06:48.493Z,99.99
2022-08-22T03:07:48.465Z,99.99
2022-08-22T03:08:50.798Z,99.90
2022-08-22T03:09:48.446Z,99.69
2022-08-22T03:10:48.455Z,99.69
2022-08-22T03:11:48.417Z,99.64
2022-08-22T03:12:48.406Z,99.74
2022-08-22T03:13:48.407Z,99.84
2022-08-22T03:14:48.385Z,99.99
2022-08-22T03:15:49.231Z,99.99
2022-08-22T03:16:48.345Z,99.95
2022-08-22T03:17:48.348Z,99.84
2022-08-22T03:18:48.339Z,99.74
2022-08-22T03:19:48.304Z,99.64
2022-08-22T03:20:48.296Z,99.54
2022-08-22T03:21:48.274Z,99.74
2022-08-22T03:22:48.264Z,99.74
2022-08-22T03:23:48.254Z,99.74
2022-08-22T03:24:48.253Z,99.64
2022-08-22T03:25:48.225Z,99.64
2022-08-22T03:26:48.221Z,99.43
2022-08-22T03:27:49.994Z,99.43
2022-08-22T03:28:59.471Z,99.79
2022-08-22T03:29:49.164Z,99.99
2022-08-22T03:30:48.165Z,99.99
2022-08-22T03:31:48.153Z,99.99
2022-08-22T03:32:48.135Z,99.99
2022-08-22T03:33:48.123Z,99.99
2022-08-22T03:34:48.103Z,99.99
2022-08-22T03:35:48.083Z,99.99
2022-08-22T03:36:48.074Z,99.99
2022-08-22T03:37:48.053Z,99.99
2022-08-22T03:38:48.074Z,99.99
2022-08-22T03:39:48.051Z,99.99
2022-08-22T03:40:48.043Z,99.99
2022-08-22T03:41:48.012Z,99.99
2022-08-22T03:42:47.992Z,99.99
2022-08-22T03:43:48.003Z,99.99
2022-08-22T03:44:47.973Z,99.99
2022-08-22T03:45:47.943Z,99.99
2022-08-22T03:46:47.941Z,99.99
2022-08-22T03:47:47.932Z,99.99
2022-08-22T03:48:47.934Z,99.99
2022-08-22T03:49:47.903Z,99.99
2022-08-22T03:50:47.890Z,99.99
2022-08-22T03:51:47.862Z,99.99
2022-08-22T03:52:47.884Z,99.99
2022-08-22T03:53:47.882Z,99.99
2022-08-22T03:54:47.833Z,99.99
2022-08-22T03:55:47.812Z,99.99
2022-08-22T03:56:47.801Z,99.99
2022-08-22T03:57:48.781Z,99.99
2022-08-22T03:58:47.791Z,99.99
2022-08-22T03:59:47.794Z,99.99
2022-08-22T04:00:47.839Z,99.99
2022-08-22T04:01:47.738Z,99.99
2022-08-22T04:02:47.721Z,99.99
2022-08-22T04:03:47.721Z,99.99
2022-08-22T04:04:47.700Z,99.99
2022-08-22T04:05:47.692Z,99.99
2022-08-22T04:06:48.460Z,99.99
2022-08-22T04:07:47.650Z,99.99
2022-08-22T04:08:47.653Z,99.99
2022-08-22T04:09:47.632Z,99.99
2022-08-22T04:10:47.613Z,99.99
2022-08-22T04:11:47.610Z,99.99
2022-08-22T04:12:47.603Z,99.99
2022-08-22T04:13:47.587Z,99.99
2022-08-22T04:14:47.573Z,99.99
2022-08-22T04:15:47.549Z,99.99
2022-08-22T04:16:47.548Z,99.99
2022-08-22T04:17:47.510Z,99.99
2022-08-22T04:18:47.519Z,99.99
2022-08-22T04:19:47.489Z,99.99
2022-08-22T04:20:47.479Z,99.99
2022-08-22T04:21:47.462Z,99.99
2022-08-22T04:22:47.456Z,99.99
2022-08-22T04:23:47.449Z,99.99
2022-08-22T04:24:52.020Z,99.99
2022-08-22T04:25:48.408Z,99.99
2022-08-22T04:26:47.398Z,99.99
2022-08-22T04:27:47.378Z,99.99
2022-08-22T04:28:47.388Z,99.99
2022-08-22T04:29:47.348Z,99.99
2022-08-22T04:30:47.338Z,99.99
2022-08-22T04:31:47.348Z,99.99
2022-08-22T04:32:47.328Z,99.99
2022-08-22T04:33:47.298Z,99.99
2022-08-22T04:34:47.288Z,99.99
2022-08-22T04:35:47.268Z,99.99
2022-08-22T04:36:47.265Z,99.99
2022-08-22T04:37:47.257Z,99.99
2022-08-22T04:38:47.237Z,99.99
2022-08-22T04:39:47.262Z,99.99
2022-08-22T04:40:47.217Z,99.99
2022-08-22T04:41:47.187Z,99.99
2022-08-22T04:42:47.196Z,99.99
2022-08-22T04:43:47.167Z,99.99
2022-08-22T04:44:47.157Z,99.99
2022-08-22T04:45:47.138Z,99.99
2022-08-22T04:46:47.136Z,99.99
2022-08-22T04:47:47.205Z,99.99
2022-08-22T04:48:48.104Z,99.99
2022-08-22T04:49:47.090Z,99.99
2022-08-22T04:50:47.073Z,99.99
2022-08-22T04:51:47.056Z,99.99
2022-08-22T04:52:47.062Z,99.99
2022-08-22T04:53:47.027Z,99.99
2022-08-22T04:54:47.028Z,99.99
2022-08-22T04:55:47.005Z,99.99
2022-08-22T04:56:46.995Z,99.99
2022-08-22T04:57:46.986Z,99.99
2022-08-22T04:58:46.995Z,99.99
2022-08-22T04:59:46.955Z,99.99
2022-08-22T05:00:46.935Z,99.99
2022-08-22T05:01:47.054Z,99.99
2022-08-22T05:02:48.316Z,99.99
2022-08-22T05:03:46.905Z,99.99
2022-08-22T05:04:46.883Z,99.99
2022-08-22T05:05:46.865Z,99.99
2022-08-22T05:06:46.858Z,99.99
2022-08-22T05:07:46.854Z,99.99
2022-08-22T05:08:48.409Z,99.99
2022-08-22T05:09:47.822Z,99.99
2022-08-22T05:10:46.804Z,99.99
2022-08-22T05:11:46.793Z,99.99
2022-08-22T05:12:46.786Z,99.99
2022-08-22T05:13:46.763Z,99.99
2022-08-22T05:14:46.744Z,99.99
2022-08-22T05:15:46.755Z,99.99
2022-08-22T05:16:46.725Z,99.99
2022-08-22T05:17:46.723Z,99.99
2022-08-22T05:18:46.714Z,99.99
2022-08-22T05:19:46.684Z,99.99
2022-08-22T05:20:46.673Z,99.99
2022-08-22T05:21:46.654Z,99.99
2022-08-22T05:22:46.663Z,99.99
2022-08-22T05:23:46.623Z,99.99
2022-08-22T05:24:46.620Z,99.99
2022-08-22T05:25:46.602Z,99.99
2022-08-22T05:26:46.593Z,99.99
2022-08-22T05:27:46.590Z,99.99
2022-08-22T05:28:50.170Z,99.99
2022-08-22T05:29:47.551Z,99.99
2022-08-22T05:30:46.544Z,99.99
2022-08-22T05:31:46.533Z,99.99
2022-08-22T05:32:46.534Z,99.99
2022-08-22T05:33:46.513Z,99.99
2022-08-22T05:34:46.492Z,99.57
2022-08-22T05:35:50.158Z,99.22
2022-08-22T05:36:47.463Z,99.42
2022-08-22T05:37:46.472Z,98.71
2022-08-22T05:38:46.443Z,99.27
2022-08-22T05:39:46.437Z,97.75
2022-08-22T05:40:46.406Z,97.75
2022-08-22T05:41:46.405Z,97.20
2022-08-22T05:42:46.796Z,96.59
2022-08-22T05:43:46.362Z,95.78
2022-08-22T05:44:46.363Z,95.42
2022-08-22T05:45:46.339Z,95.63
2022-08-22T05:46:46.332Z,95.12
2022-08-22T05:47:46.323Z,94.06
2022-08-22T05:48:46.304Z,94.06
2022-08-22T05:49:46.291Z,94.06
2022-08-22T05:50:50.428Z,93.71
2022-08-22T05:51:46.261Z,93.71
2022-08-22T05:52:46.271Z,94.48
2022-08-22T05:53:46.251Z,93.67
2022-08-22T05:54:46.222Z,92.31
2022-08-22T05:55:46.210Z,92.00
2022-08-22T05:56:46.200Z,90.99
2022-08-22T05:57:46.203Z,91.15
2022-08-22T05:58:46.181Z,91.25
2022-08-22T05:59:46.162Z,89.83
2022-08-22T06:00:46.154Z,90.84
2022-08-22T06:01:46.190Z,89.79
2022-08-22T06:02:46.120Z,89.08
2022-08-22T06:03:46.100Z,88.88
2022-08-22T06:04:46.089Z,88.98
2022-08-22T06:05:46.082Z,88.94
2022-08-22T06:06:46.051Z,87.32
2022-08-22T06:07:46.071Z,87.02
2022-08-22T06:08:46.034Z,87.68
2022-08-22T06:09:46.021Z,87.99
2022-08-22T06:10:48.085Z,87.08
2022-08-22T06:11:50.128Z,85.93
2022-08-22T06:12:46.990Z,86.02
2022-08-22T06:13:47.240Z,85.62
2022-08-22T06:14:45.951Z,85.88
2022-08-22T06:15:45.953Z,85.17
2022-08-22T06:16:47.550Z,84.97
2022-08-22T06:17:45.912Z,85.14
2022-08-22T06:18:45.952Z,85.44
2022-08-22T06:19:45.891Z,83.22
2022-08-22T06:20:45.883Z,83.78
2022-08-22T06:21:45.877Z,84.59
2022-08-22T06:22:45.842Z,82.93
2022-08-22T06:23:45.852Z,82.73
2022-08-22T06:24:45.819Z,82.64
2022-08-22T06:25:45.808Z,82.50
2022-08-22T06:26:48.737Z,81.59
2022-08-22T06:27:45.778Z,81.08
2022-08-22T06:28:55.172Z,81.35
2022-08-22T06:30:07.751Z,81.35
2022-08-22T06:30:45.750Z,81.30
2022-08-22T06:31:45.731Z,81.61
2022-08-22T06:32:59.902Z,81.21
2022-08-22T06:33:46.710Z,80.87
2022-08-22T06:34:45.691Z,81.57
2022-08-22T06:35:45.676Z,80.36
2022-08-22T06:36:45.661Z,79.92
2022-08-22T06:37:45.660Z,79.02
2022-08-22T06:38:45.732Z,79.02
2022-08-22T06:39:45.663Z,79.62
2022-08-22T06:40:45.603Z,79.62
2022-08-22T06:41:45.591Z,79.18
2022-08-22T06:42:45.581Z,79.38
2022-08-22T06:43:45.581Z,79.24
2022-08-22T06:44:45.551Z,76.03
2022-08-22T06:45:45.546Z,76.63
2022-08-22T06:46:45.532Z,75.38
2022-08-22T06:47:49.354Z,74.28
2022-08-22T06:48:45.522Z,74.35
2022-08-22T06:49:45.481Z,73.24
2022-08-22T06:50:45.482Z,73.30
2022-08-22T06:51:45.451Z,75.11
2022-08-22T06:52:45.453Z,75.71
2022-08-22T06:53:47.706Z,75.38
2022-08-22T06:54:45.423Z,73.87
2022-08-22T06:55:45.410Z,71.66
2022-08-22T06:56:45.410Z,72.83
2022-08-22T06:57:45.381Z,72.13
2022-08-22T06:58:45.392Z,71.43
2022-08-22T06:59:45.351Z,72.53
2022-08-22T07:00:51.086Z,71.80
2022-08-22T07:01:46.451Z,72.50
2022-08-22T07:02:45.312Z,71.39
2022-08-22T07:03:45.323Z,71.86
2022-08-22T07:04:45.292Z,71.56
2022-08-22T07:05:45.277Z,70.69
2022-08-22T07:06:45.308Z,71.66
2022-08-22T07:07:45.252Z,74.41
2022-08-22T07:08:45.283Z,73.94
2022-08-22T07:09:45.212Z,75.01
2022-08-22T07:10:45.216Z,75.42
2022-08-22T07:11:45.194Z,74.27
2022-08-22T07:12:45.202Z,73.67
2022-08-22T07:13:45.205Z,74.77
2022-08-22T07:14:45.153Z,75.34
2022-08-22T07:15:45.133Z,74.48
2022-08-22T07:16:45.122Z,74.18
2022-08-22T07:17:45.112Z,75.34
2022-08-22T07:18:45.123Z,73.54
2022-08-22T07:19:45.096Z,74.04
2022-08-22T07:20:45.104Z,73.77
2022-08-22T07:21:45.072Z,74.27
2022-08-22T07:22:45.063Z,74.48
2022-08-22T07:23:45.183Z,73.77
2022-08-22T07:24:45.074Z,73.87
2022-08-22T07:25:45.016Z,73.84
2022-08-22T07:26:44.994Z,74.44
2022-08-22T07:27:44.983Z,73.60
2022-08-22T07:28:50.835Z,73.30
2022-08-22T07:29:45.954Z,71.80
2022-08-22T07:30:44.944Z,72.30
2022-08-22T07:31:44.923Z,73.36
2022-08-22T07:32:44.913Z,72.73
2022-08-22T07:33:45.043Z,70.73
2022-08-22T07:34:44.915Z,70.50
2022-08-22T07:35:53.396Z,69.39
2022-08-22T07:36:45.868Z,67.86
2022-08-22T07:37:44.851Z,68.73
2022-08-22T07:38:44.864Z,69.43
2022-08-22T07:39:44.892Z,67.19
2022-08-22T07:40:44.805Z,69.09
2022-08-22T07:41:44.796Z,67.86
2022-08-22T07:42:44.786Z,68.46
2022-08-22T07:43:44.908Z,67.56
2022-08-22T07:44:44.755Z,66.39
2022-08-22T07:45:44.735Z,67.40
2022-08-22T07:46:44.725Z,67.19
2022-08-22T07:47:49.190Z,69.29
2022-08-22T07:49:07.729Z,67.96
2022-08-22T07:49:49.653Z,67.76
2022-08-22T07:50:44.675Z,67.43
2022-08-22T07:51:44.663Z,67.00
2022-08-22T07:52:44.685Z,65.90
2022-08-22T07:53:44.713Z,66.80
2022-08-22T07:54:44.617Z,64.57
2022-08-22T07:55:49.602Z,64.17
2022-08-22T07:56:45.595Z,63.34
2022-08-22T07:57:44.585Z,63.91
2022-08-22T07:58:44.587Z,63.11
2022-08-22T07:59:44.555Z,62.12
2022-08-22T08:00:44.546Z,62.88
2022-08-22T08:01:44.557Z,60.69
2022-08-22T08:02:44.527Z,63.08
2022-08-22T08:03:44.516Z,62.35
2022-08-22T08:04:44.496Z,61.58
2022-08-22T08:05:44.472Z,63.68
2022-08-22T08:06:44.466Z,66.24
2022-08-22T08:07:44.455Z,63.75
2022-08-22T08:08:44.460Z,62.51
2022-08-22T08:09:44.417Z,62.24
2022-08-22T08:10:44.417Z,62.51
2022-08-22T08:11:44.397Z,63.31
2022-08-22T08:12:44.390Z,63.38
2022-08-22T08:13:45.376Z,62.18
2022-08-22T08:14:44.417Z,61.85
2022-08-22T08:15:44.337Z,61.72
2022-08-22T08:16:44.346Z,61.43
2022-08-22T08:17:44.436Z,60.90
2022-08-22T08:18:44.650Z,60.60
2022-08-22T08:19:44.308Z,60.97
2022-08-22T08:20:44.277Z,60.38
2022-08-22T08:21:44.273Z,59.05
2022-08-22T08:22:44.279Z,58.56
2022-08-22T08:23:44.259Z,58.06
2022-08-22T08:24:44.519Z,58.65
2022-08-22T08:25:44.208Z,58.62
2022-08-22T08:26:44.208Z,58.03
2022-08-22T08:27:44.179Z,57.43
2022-08-22T08:28:44.219Z,57.93
2022-08-22T08:29:44.212Z,59.45
2022-08-22T08:30:44.150Z,60.17
2022-08-22T08:31:44.913Z,60.87
2022-08-22T08:32:44.119Z,60.27
2022-08-22T08:33:44.119Z,60.87
2022-08-22T08:34:44.109Z,61.27
2022-08-22T08:36:02.756Z,61.04
2022-08-22T08:36:45.079Z,58.45
2022-08-22T08:37:44.059Z,58.06
2022-08-22T08:38:44.079Z,58.16
2022-08-22T08:39:44.058Z,57.53
2022-08-22T08:40:44.022Z,59.52
2022-08-22T08:41:43.999Z,59.19
2022-08-22T08:42:44.001Z,58.30
2022-08-22T08:43:44.000Z,58.80
2022-08-22T08:44:43.971Z,57.70
2022-08-22T08:45:43.953Z,57.31
2022-08-22T08:46:55.223Z,57.70
2022-08-22T08:47:44.934Z,57.87
2022-08-22T08:48:43.952Z,58.27
2022-08-22T08:49:43.900Z,58.20
2022-08-22T08:50:43.892Z,57.41
2022-08-22T08:51:43.871Z,58.10
2022-08-22T08:52:43.871Z,59.07
2022-08-22T08:53:43.872Z,56.66
2022-08-22T08:54:43.851Z,55.76
2022-08-22T08:55:43.822Z,55.94
2022-08-22T08:56:47.134Z,58.48
2022-08-22T08:58:44.813Z,55.15
2022-08-22T08:59:44.401Z,58.32
2022-08-22T09:00:43.762Z,56.43
2022-08-22T09:01:43.786Z,56.66
2022-08-22T09:02:43.751Z,55.59
2022-08-22T09:03:43.742Z,57.38
2022-08-22T09:04:43.732Z,54.90
2022-08-22T09:05:43.702Z,54.90
2022-08-22T09:06:43.690Z,55.07
2022-08-22T09:07:44.673Z,56.53
2022-08-22T09:08:43.692Z,56.21
2022-08-22T09:09:43.975Z,54.99
2022-08-22T09:10:43.642Z,53.58
2022-08-22T09:11:43.624Z,53.97
2022-08-22T09:12:59.744Z,54.14
2022-08-22T09:13:44.613Z,52.07
2022-08-22T09:14:44.331Z,50.58
2022-08-22T09:15:43.572Z,49.89
2022-08-22T09:17:44.542Z,50.09
2022-08-22T09:18:43.554Z,51.47
2022-08-22T09:19:43.515Z,53.03
2022-08-22T09:20:43.505Z,48.80
2022-08-22T09:21:43.506Z,49.89
2022-08-22T09:22:50.153Z,49.22
2022-08-22T09:23:44.484Z,50.38
2022-08-22T09:24:43.454Z,50.29
2022-08-22T09:25:43.466Z,50.18
2022-08-22T09:26:43.426Z,49.12
2022-08-22T09:27:43.416Z,50.58
2022-08-22T09:28:44.647Z,51.35
2022-08-22T09:29:55.249Z,47.66
2022-08-22T09:30:44.375Z,45.09
2022-08-22T09:31:47.594Z,46.26
2022-08-22T09:32:44.367Z,45.76
2022-08-22T09:33:43.357Z,45.15
2022-08-22T09:34:43.316Z,43.37
2022-08-22T09:35:43.306Z,45.72
2022-08-22T09:36:43.309Z,46.41
2022-08-22T09:37:43.276Z,43.84
2022-08-22T09:38:47.865Z,45.01
2022-08-22T09:39:44.268Z,44.91
2022-08-22T09:40:44.246Z,44.02
2022-08-22T09:41:43.226Z,45.03
2022-08-22T09:42:44.936Z,45.35
2022-08-22T09:43:45.709Z,45.15
2022-08-22T09:44:44.197Z,45.64
2022-08-22T09:45:43.198Z,45.76
2022-08-22T09:46:43.165Z,46.75
2022-08-22T09:47:43.158Z,45.17
2022-08-22T09:48:43.157Z,44.56
2022-08-22T09:49:43.119Z,44.56
2022-08-22T09:50:43.108Z,47.20
2022-08-22T09:51:43.097Z,47.30
2022-08-22T09:52:43.106Z,46.48
2022-08-22T09:53:43.099Z,45.52
2022-08-22T09:54:43.097Z,45.62
2022-08-22T09:55:43.059Z,45.52
2022-08-22T09:56:43.051Z,45.13
2022-08-22T09:57:43.020Z,43.35
2022-08-22T09:58:43.029Z,45.84
2022-08-22T09:59:43.009Z,44.85
2022-08-22T10:00:43.033Z,45.17
2022-08-22T10:01:43.023Z,45.21
2022-08-22T10:02:43.650Z,46.70
2022-08-22T10:03:42.960Z,47.09
2022-08-22T10:04:42.940Z,46.70
2022-08-22T10:05:44.297Z,47.17
2022-08-22T10:06:42.924Z,47.07
2022-08-22T10:07:42.925Z,44.78
2022-08-22T10:08:45.824Z,45.86
2022-08-22T10:09:42.860Z,45.27
2022-08-22T10:10:42.860Z,46.33
2022-08-22T10:11:43.298Z,46.70
2022-08-22T10:12:44.846Z,44.71
2022-08-22T10:13:42.821Z,45.48
2022-08-22T10:14:42.803Z,44.49
2022-08-22T10:15:43.800Z,43.90
2022-08-22T10:16:42.835Z,42.89
2022-08-22T10:17:42.770Z,42.00
2022-08-22T10:18:52.787Z,42.58
2022-08-22T10:19:43.741Z,41.99
2022-08-22T10:20:42.722Z,41.99
2022-08-22T10:21:42.716Z,42.13
2022-08-22T10:22:44.430Z,41.93
2022-08-22T10:23:42.790Z,43.82
2022-08-22T10:24:43.992Z,43.25
2022-08-22T10:25:42.664Z,43.77
2022-08-22T10:26:42.643Z,45.13
2022-08-22T10:27:42.652Z,43.05
2022-08-22T10:28:42.646Z,43.82
2022-08-22T10:29:42.616Z,45.57
2022-08-22T10:30:42.594Z,42.20
2022-08-22T10:31:59.051Z,43.48
2022-08-22T10:32:43.573Z,44.27
2022-08-22T10:33:42.585Z,42.99
2022-08-22T10:34:42.543Z,43.68
2022-08-22T10:35:42.544Z,42.40
2022-08-22T10:36:42.531Z,41.93
2022-08-22T10:37:46.139Z,42.56
2022-08-22T10:38:44.193Z,43.35
2022-08-22T10:39:43.973Z,42.68
2022-08-22T10:40:42.505Z,44.75
2022-08-22T10:41:42.461Z,46.09
2022-08-22T10:42:42.436Z,43.11
2022-08-22T10:43:42.445Z,42.20
2022-08-22T10:44:42.416Z,41.47
2022-08-22T10:45:42.406Z,40.17
2022-08-22T10:46:42.433Z,41.93
2022-08-22T10:47:42.381Z,39.07
2022-08-22T10:48:42.376Z,40.82
2022-08-22T10:49:42.366Z,40.64
2022-08-22T10:50:42.974Z,40.05
2022-08-22T10:51:42.327Z,40.47
2022-08-22T10:52:42.308Z,40.08
2022-08-22T10:53:42.319Z,40.58
2022-08-22T10:54:42.288Z,42.07
2022-08-22T10:55:42.278Z,40.98
2022-08-22T10:56:43.919Z,42.26
2022-08-22T10:57:42.259Z,41.16
2022-08-22T10:58:42.248Z,41.94
2022-08-22T10:59:42.229Z,40.84
2022-08-22T11:00:46.019Z,39.05
2022-08-22T11:01:42.419Z,38.56
2022-08-22T11:02:44.729Z,39.72
2022-08-22T11:03:42.180Z,39.15
2022-08-22T11:04:42.168Z,41.19
2022-08-22T11:05:42.694Z,38.64
2022-08-22T11:06:42.139Z,39.92
2022-08-22T11:07:42.139Z,39.72
2022-08-22T11:08:43.120Z,38.17
2022-08-22T11:09:42.150Z,39.47
2022-08-22T11:10:42.091Z,39.09
2022-08-22T11:11:42.081Z,41.17
2022-08-22T11:12:42.071Z,40.41
2022-08-22T11:13:42.292Z,40.48
2022-08-22T11:14:42.047Z,41.08
2022-08-22T11:15:42.041Z,40.70
2022-08-22T11:16:42.231Z,40.33
2022-08-22T11:17:46.333Z,40.86
2022-08-22T11:18:42.991Z,42.64
2022-08-22T11:19:42.983Z,43.15
2022-08-22T11:20:41.962Z,45.32
2022-08-22T11:21:41.954Z,43.77
2022-08-22T11:22:41.984Z,43.27
2022-08-22T11:23:41.922Z,44.75
2022-08-22T11:24:53.923Z,43.55
2022-08-22T11:25:42.903Z,45.89
2022-08-22T11:26:47.308Z,42.40
2022-08-22T11:27:43.010Z,45.24
2022-08-22T11:28:41.854Z,45.88
2022-08-22T11:29:43.486Z,43.70
2022-08-22T11:30:44.097Z,41.41
2022-08-22T11:31:47.210Z,39.72
2022-08-22T11:32:42.831Z,39.40
2022-08-22T11:33:46.959Z,41.37
2022-08-22T11:34:42.776Z,40.09
2022-08-22T11:35:41.776Z,39.01
2022-08-22T11:36:41.764Z,38.93
2022-08-22T11:37:42.662Z,39.64
2022-08-22T11:38:41.746Z,41.11
2022-08-22T11:39:41.747Z,42.08
2022-08-22T11:40:41.714Z,41.09
2022-08-22T11:41:41.706Z,38.28
2022-08-22T11:42:47.430Z,41.75
2022-08-22T11:43:42.803Z,39.12
2022-08-22T11:44:50.876Z,40.84
2022-08-22T11:45:42.647Z,40.74
2022-08-22T11:46:41.635Z,40.96
2022-08-22T11:47:41.617Z,41.14
2022-08-22T11:48:41.629Z,42.79
2022-08-22T11:49:42.616Z,41.96
2022-08-22T11:50:42.243Z,40.16
2022-08-22T11:51:41.566Z,39.76
2022-08-22T11:52:41.555Z,41.51
2022-08-22T11:53:41.573Z,38.64
2022-08-22T11:54:42.071Z,38.85
2022-08-22T11:55:41.527Z,40.80
2022-08-22T11:56:41.758Z,39.15
2022-08-22T11:57:41.767Z,38.68
2022-08-22T11:58:41.500Z,39.39
2022-08-22T11:59:43.204Z,39.84
2022-08-22T12:00:41.930Z,40.03
2022-08-22T12:01:41.479Z,42.42
2022-08-22T12:02:41.506Z,41.73
2022-08-22T12:03:41.431Z,41.89
2022-08-22T12:04:42.563Z,40.29
2022-08-22T12:05:41.399Z,40.17
2022-08-22T12:06:41.380Z,40.35
2022-08-22T12:07:41.370Z,38.87
2022-08-22T12:08:41.369Z,41.43
2022-08-22T12:09:41.338Z,38.95
2022-08-22T12:10:41.330Z,38.95
2022-08-22T12:11:41.312Z,38.54
2022-08-22T12:12:42.278Z,38.66
2022-08-22T12:13:41.302Z,37.46
2022-08-22T12:14:41.270Z,37.36
2022-08-22T12:15:41.266Z,40.72
2022-08-22T12:16:41.291Z,38.54
2022-08-22T12:17:50.969Z,38.03
2022-08-22T12:18:42.241Z,37.54
2022-08-22T12:19:53.665Z,38.32
2022-08-22T12:20:45.524Z,37.55
2022-08-22T12:21:41.183Z,38.97
2022-08-22T12:22:41.162Z,40.53
2022-08-22T12:23:48.652Z,40.00
2022-08-22T12:24:42.152Z,36.42
2022-08-22T12:25:44.518Z,37.11
2022-08-22T12:26:41.133Z,36.01
2022-08-22T12:27:41.112Z,36.99
2022-08-22T12:28:42.104Z,36.03
2022-08-22T12:29:45.254Z,35.75
2022-08-22T12:30:41.073Z,37.36
2022-08-22T12:31:41.075Z,38.15
2022-08-22T12:32:43.856Z,37.93
2022-08-22T12:33:41.054Z,36.46
2022-08-22T12:34:41.658Z,37.03
2022-08-22T12:35:41.024Z,37.32
2022-08-22T12:36:40.984Z,38.40
2022-08-22T12:37:52.285Z,37.74
2022-08-22T12:38:41.985Z,36.77
2022-08-22T12:39:41.283Z,38.48
2022-08-22T12:40:43.799Z,37.32
2022-08-22T12:41:40.925Z,38.51
2022-08-22T12:42:41.955Z,39.64
2022-08-22T12:43:42.744Z,39.15
2022-08-22T12:44:40.898Z,39.17
2022-08-22T12:45:40.918Z,40.94
2022-08-22T12:46:46.520Z,41.14
2022-08-22T12:47:42.276Z,41.24